createdAt,value
2019-03-13T00:06:33.301Z,0.30
2019-03-13T00:09:01.755Z,0.30
2019-03-13T00:12:10.149Z,0.27
2019-03-13T00:14:57.925Z,0.30
2019-03-13T00:17:26.473Z,0.33
2019-03-13T00:19:54.912Z,0.30
2019-03-13T00:22:42.714Z,0.40
2019-03-13T00:28:19.318Z,0.30
2019-03-13T00:31:07.082Z,0.30
2019-03-13T00:33:35.555Z,0.33
2019-03-13T00:36:23.196Z,0.27
2019-03-13T00:39:11.208Z,0.30
2019-03-13T00:41:39.652Z,0.30
2019-03-13T00:47:01.352Z,0.30
2019-03-13T00:49:29.795Z,0.20
2019-03-13T00:51:58.343Z,0.30
2019-03-13T00:54:26.788Z,0.20
2019-03-13T00:57:14.541Z,0.30
2019-03-13T00:59:42.983Z,0.30
2019-03-13T01:02:30.590Z,0.30
2019-03-13T01:07:48.164Z,0.30
2019-03-13T01:10:35.929Z,0.20
2019-03-13T01:13:04.447Z,0.27
2019-03-13T01:15:32.891Z,0.30
2019-03-13T01:18:01.336Z,0.30
2019-03-13T01:20:29.891Z,0.20
2019-03-13T01:22:58.333Z,0.23
2019-03-13T01:25:26.780Z,0.27
2019-03-13T01:27:55.262Z,0.30
2019-03-13T01:30:23.703Z,0.30
2019-03-13T01:33:11.385Z,0.40
2019-03-13T01:38:28.925Z,0.30
2019-03-13T01:40:57.367Z,0.30
2019-03-13T01:43:45.046Z,0.27
2019-03-13T01:46:13.561Z,0.30
2019-03-13T01:48:42.004Z,0.20
2019-03-13T01:54:04.180Z,0.30
2019-03-13T01:56:32.656Z,0.63
2019-03-13T01:59:01.179Z,0.30
2019-03-13T02:01:29.700Z,0.40
2019-03-13T02:04:17.532Z,0.40
2019-03-13T02:06:46.024Z,0.30
2019-03-13T02:09:14.467Z,0.23
2019-03-13T02:11:42.940Z,0.30
2019-03-13T02:14:11.380Z,0.40
2019-03-13T02:16:39.824Z,0.30
2019-03-13T02:22:00.975Z,0.30
2019-03-13T02:27:28.049Z,0.30
2019-03-13T02:29:56.496Z,0.30
2019-03-13T02:32:25.008Z,0.30
2019-03-13T02:34:53.515Z,0.30
2019-03-13T02:37:21.952Z,0.40
2019-03-13T02:39:50.399Z,0.40
2019-03-13T02:42:19.246Z,0.30
2019-03-13T02:44:47.700Z,0.30
2019-03-13T02:47:19.146Z,0.30
2019-03-13T02:49:46.509Z,0.40
2019-03-13T02:52:14.985Z,0.30
2019-03-13T02:54:43.434Z,0.20
2019-03-13T02:57:11.928Z,0.23
2019-03-13T02:59:40.371Z,0.20
2019-03-13T03:02:10.489Z,0.20
2019-03-13T03:04:39.115Z,0.40
2019-03-13T03:07:07.663Z,0.30
2019-03-13T03:09:36.115Z,0.30
2019-03-13T03:12:04.783Z,0.30
2019-03-13T03:14:33.233Z,0.77
2019-03-13T03:17:01.690Z,0.73
2019-03-13T03:19:30.194Z,0.40
2019-03-13T03:21:58.693Z,0.67
2019-03-13T03:24:27.169Z,0.30
2019-03-13T03:26:55.720Z,0.30
2019-03-13T03:29:24.166Z,0.30
2019-03-13T03:31:52.614Z,0.30
2019-03-13T03:34:21.222Z,0.50
2019-03-13T03:36:49.690Z,0.30
2019-03-13T03:39:18.176Z,0.57
2019-03-13T03:41:46.848Z,0.70
2019-03-13T03:44:15.362Z,0.60
2019-03-13T03:46:43.805Z,0.30
2019-03-13T03:49:12.287Z,0.40
2019-03-13T03:51:40.725Z,0.40
2019-03-13T03:54:09.175Z,0.57
2019-03-13T03:56:37.721Z,0.47
2019-03-13T03:59:06.301Z,0.80
2019-03-13T04:01:34.745Z,0.80
2019-03-13T04:04:03.291Z,0.40
2019-03-13T04:06:32.073Z,0.93
2019-03-13T04:09:00.515Z,0.60
2019-03-13T04:11:29.159Z,1.33
2019-03-13T04:13:57.604Z,0.57
2019-03-13T04:16:26.064Z,0.60
2019-03-13T04:18:54.542Z,0.70
2019-03-13T04:21:23.067Z,0.40
2019-03-13T04:23:51.608Z,0.60
2019-03-13T04:26:20.249Z,0.50
2019-03-13T04:28:48.774Z,0.70
2019-03-13T04:31:17.220Z,0.80
2019-03-13T04:33:45.796Z,0.97
2019-03-13T04:36:14.241Z,1.10
2019-03-13T04:38:42.685Z,0.90
2019-03-13T04:41:11.205Z,0.63
2019-03-13T04:43:39.641Z,0.50
2019-03-13T04:46:08.083Z,0.83
2019-03-13T04:48:36.673Z,0.83
2019-03-13T04:51:05.143Z,0.80
2019-03-13T04:53:33.591Z,1.20
2019-03-13T04:56:02.147Z,0.90
2019-03-13T04:58:30.604Z,0.70
2019-03-13T05:00:59.051Z,0.80
2019-03-13T05:03:27.545Z,1.03
2019-03-13T05:05:56.064Z,0.77
2019-03-13T05:08:44.500Z,0.97
2019-03-13T05:11:03.589Z,1.10
2019-03-13T05:13:32.040Z,0.73
2019-03-13T05:16:00.931Z,1.17
2019-03-13T05:18:29.477Z,0.83
2019-03-13T05:20:57.991Z,1.07
2019-03-13T05:23:26.477Z,1.00
2019-03-13T05:25:54.919Z,1.10
2019-03-13T05:28:23.436Z,1.43
2019-03-13T05:30:53.252Z,2.07
2019-03-13T05:33:21.862Z,2.17
2019-03-13T05:35:50.394Z,1.50
2019-03-13T05:38:18.887Z,1.40
2019-03-13T05:40:47.385Z,1.17
2019-03-13T05:43:15.829Z,1.33
2019-03-13T05:45:44.347Z,1.30
2019-03-13T05:48:12.786Z,1.83
2019-03-13T05:50:41.241Z,2.90
2019-03-13T05:53:09.908Z,2.10
2019-03-13T05:55:38.420Z,2.73
2019-03-13T05:58:06.863Z,1.53
2019-03-13T06:00:35.360Z,2.00
2019-03-13T06:03:03.941Z,2.87
2019-03-13T06:05:32.386Z,2.30
2019-03-13T06:08:00.936Z,1.47
2019-03-13T06:10:29.453Z,1.40
2019-03-13T06:12:57.973Z,1.50
2019-03-13T06:15:26.808Z,1.57
2019-03-13T06:17:55.274Z,1.40
2019-03-13T06:20:23.784Z,0.70
2019-03-13T06:22:52.268Z,1.07
2019-03-13T06:25:20.761Z,1.17
2019-03-13T06:27:49.216Z,1.53
2019-03-13T06:30:23.571Z,0.80
2019-03-13T06:32:52.012Z,1.00
2019-03-13T06:35:23.543Z,0.90
2019-03-13T06:37:50.675Z,1.37
2019-03-13T06:40:20.708Z,1.67
2019-03-13T06:42:49.224Z,1.00
2019-03-13T06:45:17.942Z,1.03
2019-03-13T06:47:46.474Z,1.23
2019-03-13T06:50:22.836Z,0.80
2019-03-13T06:52:51.343Z,1.03
2019-03-13T06:55:19.825Z,0.90
2019-03-13T06:57:48.784Z,0.90
2019-03-13T07:00:26.999Z,0.87
2019-03-13T07:03:09.327Z,1.10
2019-03-13T07:05:39.458Z,0.70
2019-03-13T07:08:09.539Z,1.23
2019-03-13T07:10:42.491Z,1.73
2019-03-13T07:13:18.856Z,1.10
2019-03-13T07:15:52.112Z,0.77
2019-03-13T07:18:22.197Z,0.90
2019-03-13T07:20:52.286Z,2.17
2019-03-13T07:23:28.559Z,0.87
2019-03-13T07:25:58.771Z,1.20
2019-03-13T07:28:35.234Z,0.80
2019-03-13T07:31:05.458Z,0.97
2019-03-13T07:33:35.544Z,1.33
2019-03-13T07:36:08.655Z,1.10
2019-03-13T07:38:54.664Z,1.03
2019-03-13T07:41:24.796Z,1.23
2019-03-13T07:44:01.297Z,0.80
2019-03-13T07:46:46.309Z,1.10
2019-03-13T07:49:31.709Z,1.23
2019-03-13T07:52:10.568Z,1.53
2019-03-13T07:54:40.680Z,1.30
2019-03-13T07:57:23.549Z,1.20
2019-03-13T07:59:53.644Z,1.13
2019-03-13T08:02:42.222Z,0.60
2019-03-13T08:05:12.880Z,0.60
2019-03-13T08:07:48.711Z,1.60
2019-03-13T08:10:21.224Z,1.20
2019-03-13T08:13:07.737Z,1.07
2019-03-13T08:15:37.831Z,1.90
2019-03-13T08:18:17.444Z,1.10
2019-03-13T08:21:03.758Z,1.00
2019-03-13T08:23:39.629Z,1.27
2019-03-13T08:26:09.796Z,1.03
2019-03-13T08:28:39.955Z,1.20
2019-03-13T08:31:19.236Z,0.93
2019-03-13T08:34:02.763Z,1.10
2019-03-13T08:36:36.088Z,0.90
2019-03-13T08:39:08.109Z,1.23
2019-03-13T08:41:40.664Z,2.53
2019-03-13T08:44:28.231Z,2.00
2019-03-13T08:47:15.914Z,1.17
2019-03-13T08:53:11.909Z,0.70
2019-03-13T09:04:22.705Z,1.03
2019-03-13T09:07:10.275Z,0.70
2019-03-13T09:09:57.880Z,1.60
2019-03-13T09:15:53.944Z,0.60
2019-03-13T09:24:05.902Z,0.77
2019-03-13T09:26:53.475Z,0.80
2019-03-13T09:29:41.087Z,0.87
2019-03-13T09:32:28.723Z,0.97
2019-03-13T09:37:51.808Z,1.40
2019-03-13T09:40:39.446Z,0.77
2019-03-13T09:43:27.358Z,1.33
2019-03-13T09:49:04.046Z,1.23
2019-03-13T09:51:51.612Z,0.90
2019-03-13T09:54:58.870Z,1.00
2019-03-13T09:57:46.441Z,1.30
2019-03-13T10:00:54.918Z,1.20
2019-03-13T10:03:42.571Z,1.73
2019-03-13T10:06:30.319Z,0.97
2019-03-13T10:12:26.308Z,0.83
2019-03-13T10:15:13.875Z,1.23
2019-03-13T10:18:01.633Z,0.93
2019-03-13T10:21:08.525Z,0.83
2019-03-13T10:23:56.149Z,1.00
2019-03-13T10:29:52.165Z,0.70
2019-03-13T10:38:28.047Z,0.70
2019-03-13T10:41:15.683Z,1.37
2019-03-13T10:44:03.284Z,0.87
2019-03-13T10:46:50.848Z,1.23
2019-03-13T10:49:38.537Z,0.93
2019-03-13T10:52:26.165Z,1.37
2019-03-13T10:55:13.866Z,1.10
2019-03-13T10:58:20.697Z,0.70
2019-03-13T11:01:08.323Z,0.87
2019-03-13T11:06:54.294Z,1.27
2019-03-13T11:09:34.283Z,1.80
2019-03-13T11:12:41.238Z,1.47
2019-03-13T11:15:49.614Z,1.17
2019-03-13T11:18:37.231Z,3.07
2019-03-13T11:21:24.934Z,0.83
2019-03-13T11:24:12.541Z,1.70
2019-03-13T11:35:19.045Z,1.53
2019-03-13T11:38:06.614Z,2.10
2019-03-13T11:40:54.367Z,2.30
2019-03-13T11:43:41.935Z,1.80
2019-03-13T11:46:29.541Z,1.13
2019-03-13T11:52:06.387Z,1.90
2019-03-13T11:57:43.399Z,1.17
2019-03-13T12:00:51.767Z,1.70
2019-03-13T12:06:34.378Z,1.63
2019-03-13T12:09:21.948Z,2.10
2019-03-13T12:12:09.723Z,1.93
2019-03-13T12:14:57.290Z,1.07
2019-03-13T12:17:44.898Z,1.67
2019-03-13T12:20:53.264Z,2.07
2019-03-13T12:23:40.861Z,1.83
2019-03-13T12:26:28.433Z,1.00
2019-03-13T12:29:16.077Z,2.13
2019-03-13T12:32:03.728Z,1.13
2019-03-13T12:34:51.343Z,2.00
2019-03-13T12:37:38.913Z,1.33
2019-03-13T12:40:47.307Z,0.83
2019-03-13T12:43:54.253Z,1.13
2019-03-13T12:46:41.927Z,1.10
2019-03-13T12:49:29.593Z,1.33
2019-03-13T12:52:17.524Z,1.53
2019-03-13T12:55:05.091Z,1.43
2019-03-13T12:57:52.770Z,1.00
2019-03-13T13:00:40.441Z,1.03
2019-03-13T13:06:22.897Z,1.57
2019-03-13T13:09:10.483Z,1.33
2019-03-13T13:11:58.104Z,0.47
2019-03-13T13:14:45.770Z,0.80
2019-03-13T13:17:33.385Z,0.57
2019-03-13T13:20:01.837Z,0.70
2019-03-13T13:22:49.569Z,0.80
2019-03-13T13:25:37.206Z,1.07
2019-03-13T13:28:45.683Z,0.73
2019-03-13T13:31:33.390Z,1.03
2019-03-13T13:36:35.876Z,1.00
2019-03-13T13:39:44.359Z,1.00
2019-03-13T13:42:12.896Z,0.70
2019-03-13T13:44:41.348Z,0.80
2019-03-13T13:47:29.226Z,0.47
2019-03-13T13:49:59.913Z,0.93
2019-03-13T13:52:27.849Z,0.60
2019-03-13T13:55:15.673Z,1.00
2019-03-13T13:57:44.116Z,0.73
2019-03-13T14:00:39.157Z,0.50
2019-03-13T14:03:07.599Z,0.90
2019-03-13T14:05:36.050Z,0.97
2019-03-13T14:08:04.534Z,1.63
2019-03-13T14:10:52.245Z,0.80
2019-03-13T14:13:39.972Z,1.37
2019-03-13T14:16:46.990Z,1.00
2019-03-13T14:22:47.163Z,1.00
2019-03-13T14:25:35.195Z,0.73
2019-03-13T14:31:10.411Z,1.00
2019-03-13T14:33:38.836Z,1.13
2019-03-13T14:36:07.269Z,1.20
2019-03-13T14:38:47.982Z,1.20
2019-03-13T14:41:35.608Z,0.97
2019-03-13T14:44:04.074Z,2.23
2019-03-13T14:46:32.489Z,1.23
2019-03-13T14:49:00.914Z,1.20
2019-03-13T14:51:29.839Z,0.97
2019-03-13T14:53:58.267Z,2.10
2019-03-13T14:56:26.787Z,1.43
2019-03-13T14:58:55.217Z,1.40
2019-03-13T15:01:23.675Z,1.43
2019-03-13T15:03:52.103Z,0.90
2019-03-13T15:06:20.561Z,1.10
2019-03-13T15:12:48.631Z,1.13
2019-03-13T15:19:28.936Z,1.60
2019-03-13T15:21:57.448Z,1.13
2019-03-13T15:31:23.799Z,1.60
2019-03-13T15:33:52.423Z,1.90
2019-03-13T15:36:20.971Z,1.30
2019-03-13T15:38:49.395Z,1.30
2019-03-13T15:41:17.838Z,2.13
2019-03-13T15:43:46.260Z,1.93
2019-03-13T15:46:14.865Z,3.07
2019-03-13T15:55:53.309Z,1.73
2019-03-13T15:58:21.755Z,2.10
2019-03-13T16:00:50.252Z,2.10
2019-03-13T16:03:18.716Z,1.70
2019-03-13T16:05:47.140Z,2.03
2019-03-13T16:08:15.598Z,2.20
2019-03-13T16:10:44.139Z,2.93
2019-03-13T16:13:12.564Z,2.20
2019-03-13T16:15:42.173Z,2.40
2019-03-13T16:18:10.638Z,1.57
2019-03-13T16:20:39.212Z,1.57
2019-03-13T16:23:07.636Z,1.83
2019-03-13T16:25:36.180Z,1.93
2019-03-13T16:28:04.747Z,2.00
2019-03-13T16:30:40.679Z,1.30
2019-03-13T16:33:09.228Z,1.30
2019-03-13T16:35:37.718Z,1.33
2019-03-13T16:38:06.221Z,1.27
2019-03-13T16:40:34.749Z,1.20
2019-03-13T16:43:03.416Z,1.07
2019-03-13T16:45:31.911Z,1.80
2019-03-13T16:48:00.440Z,0.90
2019-03-13T16:50:36.674Z,1.30
2019-03-13T16:53:05.451Z,0.80
2019-03-13T16:55:33.938Z,0.60
2019-03-13T16:58:02.388Z,0.70
2019-03-13T17:00:33.085Z,1.00
2019-03-13T17:03:01.749Z,0.73
2019-03-13T17:05:30.329Z,0.90
2019-03-13T17:07:59.004Z,1.10
2019-03-13T17:10:28.538Z,1.13
2019-03-13T17:12:57.279Z,1.10
2019-03-13T17:15:26.845Z,1.10
2019-03-13T17:17:55.500Z,0.80
2019-03-13T17:20:29.514Z,1.23
2019-03-13T17:22:58.120Z,1.17
2019-03-13T17:25:26.641Z,1.03
2019-03-13T17:27:55.060Z,0.70
2019-03-13T17:30:28.772Z,1.43
2019-03-13T17:32:57.339Z,1.67
2019-03-13T17:35:25.855Z,1.53
2019-03-13T17:37:54.312Z,0.90
2019-03-13T17:40:28.870Z,1.07
2019-03-13T17:42:57.493Z,1.10
2019-03-13T17:45:26.341Z,1.20
2019-03-13T17:47:55.106Z,1.53
2019-03-13T17:50:24.481Z,1.87
2019-03-13T17:52:53.042Z,1.40
2019-03-13T17:55:25.804Z,1.07
2019-03-13T17:57:54.386Z,2.37
2019-03-13T18:00:38.988Z,2.80
2019-03-13T18:03:07.422Z,1.43
2019-03-13T18:05:35.916Z,1.73
2019-03-13T18:08:04.407Z,1.90
2019-03-13T18:10:32.978Z,1.50
2019-03-13T18:13:01.405Z,1.10
2019-03-13T18:15:30.020Z,1.40
2019-03-13T18:17:58.451Z,1.73
2019-03-13T18:20:26.878Z,1.60
2019-03-13T18:22:55.496Z,2.07
2019-03-13T18:25:23.935Z,3.10
2019-03-13T18:27:52.422Z,2.80
2019-03-13T18:30:23.166Z,0.50
2019-03-13T18:32:52.658Z,0.63
2019-03-13T18:35:21.528Z,0.90
2019-03-13T18:37:50.117Z,1.40
2019-03-13T18:40:22.254Z,0.73
2019-03-13T18:42:50.813Z,0.73
2019-03-13T18:45:27.668Z,1.20
2019-03-13T18:47:56.531Z,0.63
2019-03-13T18:50:25.102Z,0.97
2019-03-13T18:52:53.790Z,0.63
2019-03-13T18:55:30.214Z,0.70
2019-03-13T18:57:59.018Z,0.77
2019-03-13T19:00:35.423Z,0.70
2019-03-13T19:03:04.527Z,0.60
2019-03-13T19:05:37.086Z,0.50
2019-03-13T19:08:06.051Z,0.50
2019-03-13T19:10:34.961Z,0.53
2019-03-13T19:13:03.528Z,0.73
2019-03-13T19:15:32.088Z,0.57
2019-03-13T19:18:01.282Z,0.90
2019-03-13T19:20:30.657Z,0.83
2019-03-13T19:22:59.185Z,0.87
2019-03-13T19:25:27.661Z,1.00
2019-03-13T19:27:56.332Z,0.80
2019-03-13T19:30:32.139Z,1.00
2019-03-13T19:33:01.077Z,0.40
2019-03-13T19:35:29.838Z,0.60
2019-03-13T19:38:07.555Z,0.70
2019-03-13T19:40:36.363Z,0.60
2019-03-13T19:43:04.801Z,0.87
2019-03-13T19:45:47.572Z,0.40
2019-03-13T19:48:16.156Z,0.60
2019-03-13T19:50:44.651Z,0.30
2019-03-13T19:53:13.398Z,0.70
2019-03-13T19:55:41.829Z,0.63
2019-03-13T19:58:10.257Z,0.30
2019-03-13T20:00:38.949Z,0.20
2019-03-13T20:03:12.659Z,0.27
2019-03-13T20:05:46.037Z,0.23
2019-03-13T20:08:13.794Z,0.30
2019-03-13T20:10:41.728Z,0.30
2019-03-13T20:13:10.296Z,0.30
2019-03-13T20:15:38.927Z,0.20
2019-03-13T20:18:07.455Z,0.30
2019-03-13T20:20:36.001Z,0.20
2019-03-13T20:23:12.301Z,0.23
2019-03-13T20:25:40.802Z,0.40
2019-03-13T20:28:09.312Z,0.40
2019-03-13T20:30:38.126Z,0.63
2019-03-13T20:33:06.702Z,0.40
2019-03-13T20:35:36.704Z,0.37
2019-03-13T20:38:05.517Z,0.40
2019-03-13T20:40:34.179Z,0.30
2019-03-13T20:43:03.056Z,0.40
2019-03-13T20:46:11.579Z,0.40
2019-03-13T20:48:40.008Z,0.40
2019-03-13T20:51:08.433Z,0.40
2019-03-13T20:56:11.797Z,0.40
2019-03-13T21:01:34.045Z,0.40
2019-03-13T21:07:15.466Z,0.30
2019-03-13T21:09:43.938Z,0.40
2019-03-13T21:12:12.365Z,0.30
2019-03-13T21:14:40.818Z,0.50
2019-03-13T21:17:09.317Z,0.70
2019-03-13T21:19:37.740Z,0.50
2019-03-13T21:22:06.182Z,0.87
2019-03-13T21:24:34.636Z,0.50
2019-03-13T21:27:03.068Z,0.50
2019-03-13T21:29:31.480Z,0.57
2019-03-13T21:32:00.044Z,0.50
2019-03-13T21:34:28.648Z,0.40
2019-03-13T21:37:17.984Z,0.40
2019-03-13T21:40:05.724Z,0.40
2019-03-13T21:42:34.205Z,0.40
2019-03-13T21:45:23.145Z,0.40
2019-03-13T21:51:05.587Z,0.30
2019-03-13T21:53:34.013Z,0.30
2019-03-13T21:56:21.674Z,0.80
2019-03-13T21:59:09.354Z,0.40
2019-03-13T22:01:37.808Z,0.40
2019-03-13T22:04:07.887Z,0.50
2019-03-13T22:06:36.387Z,0.40
2019-03-13T22:09:44.844Z,0.53
2019-03-13T22:12:13.272Z,0.50
2019-03-13T22:14:41.693Z,1.00
2019-03-13T22:17:10.158Z,1.20
2019-03-13T22:19:38.584Z,0.60
2019-03-13T22:22:07.009Z,0.60
2019-03-13T22:24:35.464Z,0.87
2019-03-13T22:27:23.137Z,1.17
2019-03-13T22:29:51.636Z,0.80
2019-03-13T22:32:20.067Z,0.57
2019-03-13T22:34:48.488Z,1.00
2019-03-13T22:37:36.360Z,0.93
2019-03-13T22:40:44.708Z,0.80
2019-03-13T22:43:13.160Z,0.80
2019-03-13T22:45:41.591Z,0.77
2019-03-13T22:48:10.016Z,0.70
2019-03-13T22:50:38.492Z,1.10
2019-03-13T22:53:06.918Z,1.27
2019-03-13T22:55:35.345Z,1.10
2019-03-13T22:58:03.810Z,1.57
2019-03-13T23:01:12.212Z,1.60
2019-03-13T23:03:41.026Z,2.17
2019-03-13T23:11:53.416Z,0.70
2019-03-13T23:14:21.896Z,0.60
2019-03-13T23:16:50.320Z,0.80
2019-03-13T23:19:18.747Z,0.40
2019-03-13T23:24:20.790Z,0.73
2019-03-13T23:26:49.214Z,0.40
2019-03-13T23:31:52.059Z,0.40
2019-03-13T23:34:20.507Z,0.30
2019-03-13T23:36:49.015Z,0.40
2019-03-13T23:39:36.667Z,0.50
2019-03-13T23:42:05.094Z,0.40
2019-03-13T23:44:33.516Z,0.40
2019-03-13T23:47:01.974Z,0.57
2019-03-13T23:49:30.397Z,0.60
2019-03-13T23:51:58.825Z,0.40
2019-03-13T23:54:27.320Z,0.60
2019-03-13T23:56:55.750Z,0.47
2019-03-13T23:59:24.169Z,2.13
